createdAt,value
2019-02-10T00:02:49.932Z,2.10
2019-02-10T00:08:22.548Z,2.20
2019-02-10T00:13:52.210Z,2.10
2019-02-10T00:19:21.598Z,2.50
2019-02-10T00:24:51.051Z,1.77
2019-02-10T00:30:20.378Z,1.70
2019-02-10T00:35:49.755Z,1.60
2019-02-10T00:41:19.166Z,1.60
2019-02-10T00:46:48.584Z,2.10
2019-02-10T00:52:17.912Z,1.83
2019-02-10T00:57:47.301Z,1.80
2019-02-10T01:03:17.103Z,2.17
2019-02-10T01:08:46.537Z,2.50
2019-02-10T01:14:15.897Z,2.30
2019-02-10T01:19:45.239Z,6.20
2019-02-10T01:25:14.655Z,12.40
2019-02-10T01:30:44.041Z,9.27
2019-02-10T01:36:13.865Z,4.60
2019-02-10T01:41:43.611Z,5.27
2019-02-10T01:47:12.939Z,7.97
2019-02-10T01:52:42.448Z,7.93
2019-02-10T01:58:11.852Z,6.10
2019-02-10T02:03:41.489Z,4.20
2019-02-10T02:09:12.540Z,3.43
2019-02-10T02:14:41.868Z,3.00
2019-02-10T02:20:13.178Z,2.60
2019-02-10T02:25:42.585Z,2.00
2019-02-10T02:31:12.058Z,2.13
2019-02-10T02:36:44.451Z,1.90
2019-02-10T02:42:13.907Z,2.13
2019-02-10T02:47:43.179Z,1.57
2019-02-10T02:53:12.451Z,1.60
2019-02-10T02:58:41.707Z,1.27
2019-02-10T03:04:10.977Z,1.30
2019-02-10T03:09:40.258Z,1.17
2019-02-10T03:15:10.056Z,0.93
2019-02-10T03:20:39.326Z,1.23
2019-02-10T03:26:08.592Z,1.20
2019-02-10T03:31:37.868Z,1.00
2019-02-10T03:37:07.140Z,1.23
2019-02-10T03:42:36.482Z,1.20
2019-02-10T03:48:05.810Z,1.50
2019-02-10T03:53:35.081Z,1.13
2019-02-10T03:59:04.441Z,1.20
2019-02-10T04:04:33.690Z,1.37
2019-02-10T04:10:03.225Z,1.40
2019-02-10T04:15:32.569Z,1.40
2019-02-10T04:21:02.269Z,1.30
2019-02-10T04:26:31.693Z,1.30
2019-02-10T04:32:00.950Z,1.27
2019-02-10T04:37:30.216Z,1.50
2019-02-10T04:42:59.490Z,1.50
2019-02-10T04:48:28.757Z,1.20
2019-02-10T04:53:58.040Z,1.17
2019-02-10T04:59:27.310Z,1.20
2019-02-10T05:04:56.577Z,1.00
2019-02-10T05:10:25.861Z,1.37
2019-02-10T05:15:55.133Z,1.20
2019-02-10T05:21:24.410Z,1.17
2019-02-10T05:26:53.739Z,1.43
2019-02-10T05:32:23.096Z,1.47
2019-02-10T05:37:52.358Z,1.80
2019-02-10T05:43:21.625Z,1.10
2019-02-10T05:48:50.905Z,1.50
2019-02-10T05:54:20.154Z,2.30
2019-02-10T05:59:49.463Z,1.30
2019-02-10T06:05:22.149Z,1.10
2019-02-10T06:10:52.376Z,1.10
2019-02-10T06:16:21.643Z,1.50
2019-02-10T06:21:50.913Z,1.33
2019-02-10T06:27:21.833Z,1.10
2019-02-10T06:32:51.107Z,1.20
2019-02-10T06:38:22.403Z,1.43
2019-02-10T06:43:51.367Z,1.10
2019-02-10T06:49:21.482Z,1.33
2019-02-10T06:54:53.441Z,1.20
2019-02-10T07:00:39.374Z,1.10
2019-02-10T07:06:10.043Z,1.00
2019-02-10T07:11:39.308Z,2.30
2019-02-10T07:17:19.122Z,1.50
2019-02-10T07:22:56.978Z,2.20
2019-02-10T07:28:30.974Z,2.00
2019-02-10T07:34:25.259Z,2.27
2019-02-10T07:40:19.076Z,2.20
2019-02-10T07:46:17.059Z,2.30
2019-02-10T07:52:16.325Z,2.40
2019-02-10T07:58:20.738Z,1.87
2019-02-10T08:04:21.543Z,1.60
2019-02-10T08:10:15.468Z,2.10
2019-02-10T08:16:20.872Z,1.90
2019-02-10T08:22:01.282Z,2.00
2019-02-10T08:28:05.235Z,1.97
2019-02-10T08:33:53.743Z,2.37
2019-02-10T08:39:59.488Z,1.50
2019-02-10T08:45:54.197Z,1.50
2019-02-10T08:51:41.186Z,1.50
2019-02-10T08:57:10.627Z,1.63
2019-02-10T09:02:41.378Z,1.20
2019-02-10T09:08:10.897Z,1.77
2019-02-10T09:13:40.546Z,2.57
2019-02-10T09:19:29.512Z,1.97
2019-02-10T09:24:59.116Z,1.70
2019-02-10T09:30:28.713Z,1.83
2019-02-10T09:35:58.148Z,2.33
2019-02-10T09:41:27.419Z,2.10
2019-02-10T09:46:56.854Z,2.80
2019-02-10T09:52:26.128Z,2.20
2019-02-10T09:57:55.484Z,2.13
2019-02-10T10:03:31.939Z,2.33
2019-02-10T10:09:02.227Z,3.10
2019-02-10T10:14:31.567Z,3.50
2019-02-10T10:20:00.997Z,3.43
2019-02-10T10:25:30.544Z,3.97
2019-02-10T10:31:00.161Z,4.40
2019-02-10T10:36:29.866Z,5.07
2019-02-10T10:41:59.422Z,4.00
2019-02-10T10:47:28.909Z,2.80
2019-02-10T10:53:00.637Z,1.90
2019-02-10T10:58:30.073Z,2.17
2019-02-10T11:03:59.383Z,2.00
2019-02-10T11:09:35.414Z,2.70
2019-02-10T11:14:59.675Z,2.20
2019-02-10T11:20:30.315Z,2.30
2019-02-10T11:25:59.579Z,2.03
2019-02-10T11:31:28.867Z,12.43
2019-02-10T11:36:58.141Z,1.90
2019-02-10T11:42:27.495Z,1.93
2019-02-10T11:47:56.776Z,1.87
2019-02-10T11:53:26.054Z,2.13
2019-02-10T11:58:55.334Z,1.90
2019-02-10T12:04:24.628Z,1.93
2019-02-10T12:09:53.904Z,2.20
2019-02-10T12:15:23.188Z,1.67
2019-02-10T12:20:52.481Z,2.10
2019-02-10T12:26:21.927Z,3.23
2019-02-10T12:31:51.195Z,2.67
2019-02-10T12:37:22.171Z,2.53
2019-02-10T12:42:51.616Z,2.70
2019-02-10T12:48:21.532Z,2.37
2019-02-10T12:53:50.966Z,2.43
2019-02-10T12:59:20.322Z,2.93
2019-02-10T13:04:49.734Z,2.33
2019-02-10T13:10:19.015Z,2.43
2019-02-10T13:15:48.432Z,2.37
2019-02-10T13:21:19.359Z,3.00
2019-02-10T13:26:48.651Z,2.83
2019-02-10T13:32:18.133Z,2.30
2019-02-10T13:37:47.443Z,2.27
2019-02-10T13:43:16.735Z,2.20
2019-02-10T13:48:46.157Z,2.60
2019-02-10T13:54:17.067Z,2.80
2019-02-10T13:59:46.487Z,2.50
2019-02-10T14:05:24.976Z,2.47
2019-02-10T14:10:54.324Z,3.10
2019-02-10T14:16:24.000Z,5.67
2019-02-10T14:21:53.340Z,3.30
2019-02-10T14:27:22.730Z,3.10
2019-02-10T14:32:51.980Z,3.10
2019-02-10T14:38:21.266Z,4.10
2019-02-10T14:43:50.615Z,2.87
2019-02-10T14:49:20.001Z,2.27
2019-02-10T14:54:49.416Z,2.60
2019-02-10T15:00:18.772Z,2.17
2019-02-10T15:05:48.055Z,2.80
2019-02-10T15:11:17.414Z,1.70
2019-02-10T15:16:46.687Z,1.60
2019-02-10T15:22:16.982Z,2.60
2019-02-10T15:27:47.597Z,1.87
2019-02-10T15:33:17.172Z,2.07
2019-02-10T15:38:48.117Z,2.17
2019-02-10T15:44:17.475Z,1.30
2019-02-10T15:49:46.845Z,2.20
2019-02-10T15:55:16.126Z,1.90
2019-02-10T16:00:45.405Z,1.90
2019-02-10T16:06:16.188Z,1.70
2019-02-10T16:11:45.484Z,2.40
2019-02-10T16:17:14.734Z,2.67
2019-02-10T16:22:44.074Z,3.23
2019-02-10T16:28:13.362Z,2.30
2019-02-10T16:33:42.635Z,1.90
2019-02-10T16:39:11.986Z,2.10
2019-02-10T16:44:42.340Z,2.30
2019-02-10T16:50:19.278Z,2.10
2019-02-10T16:55:48.572Z,2.10
2019-02-10T17:01:17.854Z,2.47
2019-02-10T17:06:47.328Z,1.83
2019-02-10T17:12:16.625Z,1.77
2019-02-10T17:17:45.975Z,1.43
2019-02-10T17:23:15.256Z,1.83
2019-02-10T17:28:44.544Z,3.33
2019-02-10T17:34:13.822Z,2.90
2019-02-10T17:39:43.113Z,2.07
2019-02-10T17:45:13.414Z,2.87
2019-02-10T17:50:43.693Z,2.70
2019-02-10T17:56:13.076Z,1.87
2019-02-10T18:01:42.351Z,1.93
2019-02-10T18:07:11.624Z,1.67
2019-02-10T18:12:40.895Z,1.60
2019-02-10T18:18:11.827Z,0.83
2019-02-10T18:23:51.694Z,0.97
2019-02-10T18:29:36.649Z,0.60
2019-02-10T18:35:24.376Z,0.70
2019-02-10T18:40:55.294Z,0.70
2019-02-10T18:46:41.448Z,0.90
2019-02-10T18:52:28.725Z,0.90
2019-02-10T18:58:02.374Z,0.77
2019-02-10T19:03:42.201Z,0.70
2019-02-10T19:09:32.627Z,0.90
2019-02-10T19:15:10.622Z,0.70
2019-02-10T19:20:41.701Z,0.60
2019-02-10T19:26:31.187Z,0.70
2019-02-10T19:32:10.997Z,0.50
2019-02-10T19:37:44.966Z,0.70
2019-02-10T19:43:18.853Z,0.70
2019-02-10T19:48:55.969Z,0.67
2019-02-10T19:54:26.912Z,0.50
2019-02-10T20:00:14.197Z,0.70
2019-02-10T20:05:51.060Z,0.90
2019-02-10T20:11:37.983Z,0.60
2019-02-10T20:17:25.041Z,0.93
2019-02-10T20:23:04.957Z,0.53
2019-02-10T20:28:41.764Z,0.80
2019-02-10T20:34:15.325Z,0.97
2019-02-10T20:40:04.806Z,0.60
2019-02-10T20:45:38.893Z,0.60
2019-02-10T20:51:15.778Z,0.60
2019-02-10T20:56:46.830Z,0.50
2019-02-10T21:02:29.791Z,0.60
2019-02-10T21:08:18.674Z,0.60
2019-02-10T21:14:04.640Z,0.57
2019-02-10T21:19:44.728Z,0.50
2019-02-10T21:25:15.702Z,0.60
2019-02-10T21:30:47.330Z,0.60
2019-02-10T21:36:18.305Z,0.60
2019-02-10T21:41:50.857Z,0.87
2019-02-10T21:47:24.742Z,0.93
2019-02-10T21:52:55.161Z,0.50
2019-02-10T21:58:24.445Z,0.60
2019-02-10T22:03:54.499Z,0.60
2019-02-10T22:09:24.116Z,0.60
2019-02-10T22:14:53.435Z,0.50
2019-02-10T22:20:22.712Z,0.53
2019-02-10T22:25:52.114Z,0.57
2019-02-10T22:31:29.343Z,0.60
2019-02-10T22:37:01.702Z,0.50
2019-02-10T22:42:32.622Z,0.60
2019-02-10T22:48:01.819Z,0.60
2019-02-10T22:53:32.640Z,0.50
2019-02-10T22:59:01.918Z,0.50
2019-02-10T23:04:31.201Z,0.60
2019-02-10T23:10:00.533Z,0.50
2019-02-10T23:15:31.766Z,0.60
2019-02-10T23:21:01.050Z,0.50
2019-02-10T23:26:32.160Z,0.50
2019-02-10T23:32:01.410Z,0.60
2019-02-10T23:37:30.677Z,0.63
2019-02-10T23:43:02.238Z,0.50
2019-02-10T23:48:33.655Z,0.63
2019-02-10T23:54:02.941Z,0.50
2019-02-10T23:59:32.474Z,0.50
